Time;durP1;ratioP1;P1;durP2;ratioP2;P2;SDS_P1;SDS_P2;PMS_P1;PMS_P2;Temp;Humidity;BMP_temperature;BMP_pressure;BME280_temperature;BME280_humidity;BME280_pressure;Samples;Min_cycle;Max_cycle;Signal;HPM_P1;HPM_P2
2022/12/18 00:01:19;;;;;;;2.97;0.80;;;19.50;99.90;;;;;;5077255;28;20665;-79
2022/12/18 00:03:50;;;;;;;2.47;0.82;;;19.30;99.90;;;;;;5090013;28;20197;-77
2022/12/18 00:06:22;;;;;;;1.63;0.65;;;19.40;99.90;;;;;;5088304;28;20234;-80
2022/12/18 00:08:52;;;;;;;3.33;0.88;;;19.40;99.90;;;;;;5090144;28;20199;-80
2022/12/18 00:11:26;;;;;;;9.65;3.10;;;19.20;99.90;;;;;;5088855;28;20585;-80
2022/12/18 00:13:58;;;;;;;10.27;2.10;;;18.90;99.90;;;;;;5089941;28;20226;-79
2022/12/18 00:16:32;;;;;;;2.25;0.70;;;18.80;99.90;;;;;;5089255;28;20231;-79
2022/12/18 00:19:04;;;;;;;4.22;1.30;;;18.50;99.90;;;;;;5091098;28;20206;-79
2022/12/18 00:21:35;;;;;;;4.18;1.10;;;18.50;99.90;;;;;;5090934;28;20202;-79
2022/12/18 00:24:06;;;;;;;5.10;0.80;;;18.40;99.90;;;;;;5083972;28;20271;-79
2022/12/18 00:26:39;;;;;;;1.67;0.47;;;18.40;99.90;;;;;;5087731;28;20236;-79
2022/12/18 00:29:13;;;;;;;1.38;0.70;;;18.50;99.90;;;;;;5086840;28;20198;-79
2022/12/18 00:31:44;;;;;;;5.68;1.55;;;18.70;99.90;;;;;;5072747;28;20253;-80
2022/12/18 00:34:18;;;;;;;6.15;1.35;;;18.90;99.90;;;;;;5072841;28;20291;-80
2022/12/18 00:36:51;;;;;;;6.03;1.83;;;18.90;99.90;;;;;;5089798;28;20282;-80
2022/12/18 00:39:22;;;;;;;8.10;1.52;;;18.70;99.90;;;;;;5070154;28;20211;-80
2022/12/18 00:44:41;;;;;;;3.47;1.02;;;19.10;99.90;;;;;;5088802;28;20199;-80
2022/12/18 00:47:12;;;;;;;2.40;0.90;;;19.20;99.90;;;;;;5089287;28;20187;-81
2022/12/18 00:49:44;;;;;;;3.83;1.20;;;19.50;99.90;;;;;;5089262;28;20525;-80
2022/12/18 00:52:15;;;;;;;2.70;0.70;;;19.60;99.90;;;;;;5088615;28;20194;-79
2022/12/18 00:54:46;;;;;;;4.45;1.05;;;19.60;99.90;;;;;;5090517;28;20238;-80
2022/12/18 00:57:19;;;;;;;4.50;1.20;;;19.90;99.90;;;;;;5088460;28;20195;-80
2022/12/18 00:59:50;;;;;;;4.10;0.93;;;20.10;99.90;;;;;;5090062;28;20195;-80
2022/12/18 01:02:20;;;;;;;3.13;0.80;;;20.10;99.90;;;;;;5088404;28;20286;-80
2022/12/18 01:04:51;;;;;;;2.53;0.60;;;19.90;99.90;;;;;;5084552;28;20200;-79
2022/12/18 01:07:22;;;;;;;2.67;0.80;;;19.50;99.90;;;;;;5094272;28;20649;-80
2022/12/18 01:09:53;;;;;;;4.72;1.10;;;19.10;99.90;;;;;;5087224;28;20191;-80
2022/12/18 01:12:26;;;;;;;4.95;1.10;;;18.90;99.90;;;;;;5092011;28;20213;-80
2022/12/18 01:14:56;;;;;;;7.03;1.52;;;18.80;99.90;;;;;;5084175;28;20219;-80
2022/12/18 01:17:30;;;;;;;5.40;1.25;;;18.80;99.90;;;;;;5086767;28;20245;-80
2022/12/18 01:20:01;;;;;;;6.20;1.40;;;18.80;99.90;;;;;;5082335;28;20677;-80
2022/12/18 01:22:35;;;;;;;3.65;1.00;;;18.70;99.90;;;;;;5078388;28;20204;-80
2022/12/18 01:25:06;;;;;;;6.15;1.27;;;18.60;99.90;;;;;;5094116;28;20199;-79
2022/12/18 01:27:42;;;;;;;4.38;0.90;;;18.40;99.90;;;;;;5092965;28;20191;-80
2022/12/18 01:30:14;;;;;;;5.93;1.38;;;18.40;99.90;;;;;;5092593;28;20529;-79
2022/12/18 01:32:44;;;;;;;6.75;1.50;;;18.30;99.90;;;;;;5091791;28;20207;-81
2022/12/18 01:35:15;;;;;;;2.92;1.05;;;18.20;99.90;;;;;;5092493;28;20219;-81
2022/12/18 01:37:46;;;;;;;2.58;0.77;;;18.20;99.90;;;;;;5093543;28;20264;-81
2022/12/18 01:40:17;;;;;;;4.43;1.50;;;18.20;99.90;;;;;;5092451;28;20282;-81
2022/12/18 01:42:54;;;;;;;5.32;1.30;;;18.20;99.90;;;;;;5095734;28;20938;-82
2022/12/18 01:45:30;;;;;;;3.55;1.38;;;18.10;99.90;;;;;;5092668;28;20199;-81
2022/12/18 01:48:03;;;;;;;6.65;2.10;;;18.20;99.90;;;;;;5092558;28;20205;-80
2022/12/18 01:50:39;;;;;;;5.80;2.22;;;18.30;99.90;;;;;;5093256;28;20191;-81
2022/12/18 01:53:13;;;;;;;7.35;1.63;;;18.30;99.90;;;;;;5097760;28;20202;-81
2022/12/18 01:55:48;;;;;;;5.80;1.23;;;18.40;99.90;;;;;;5114672;28;20225;-83
2022/12/18 01:58:22;;;;;;;6.78;1.73;;;18.50;99.90;;;;;;5096249;28;20213;-81
2022/12/18 02:00:53;;;;;;;6.35;1.33;;;18.60;99.90;;;;;;5087554;28;20663;-81
2022/12/18 02:03:23;;;;;;;6.32;1.80;;;18.70;99.90;;;;;;5091608;28;20199;-81
2022/12/18 02:06:02;;;;;;;6.28;1.50;;;18.70;99.90;;;;;;5090916;28;20281;-82
2022/12/18 02:08:37;;;;;;;7.90;1.85;;;18.60;99.90;;;;;;5093743;28;20535;-81
2022/12/18 02:11:13;;;;;;;6.88;1.60;;;18.70;99.90;;;;;;5091004;28;20201;-81
2022/12/18 02:13:55;;;;;;;8.30;1.63;;;18.80;99.90;;;;;;5093462;28;20291;-81
2022/12/18 02:16:32;;;;;;;7.03;1.27;;;18.90;99.90;;;;;;5088230;28;20282;-80
2022/12/18 02:19:08;;;;;;;6.03;1.30;;;19.00;99.90;;;;;;5091800;28;20199;-82
2022/12/18 02:21:48;;;;;;;10.88;1.55;;;19.30;99.90;;;;;;5091990;28;20719;-80
2022/12/18 02:24:30;;;;;;;4.20;0.85;;;19.40;99.90;;;;;;5080412;28;20559;-81
2022/12/18 02:27:06;;;;;;;7.05;1.10;;;19.50;99.90;;;;;;5093040;28;20205;-81
2022/12/18 02:29:47;;;;;;;3.72;1.05;;;19.60;99.90;;;;;;5090465;28;20249;-80
2022/12/18 02:32:26;;;;;;;5.70;1.27;;;19.90;99.90;;;;;;5091122;28;20195;-80
2022/12/18 02:35:00;;;;;;;6.65;2.00;;;20.10;99.90;;;;;;5091474;28;20229;-81
2022/12/18 02:37:33;;;;;;;7.38;1.65;;;20.00;99.90;;;;;;5092651;28;20195;-81
2022/12/18 02:40:05;;;;;;;7.60;1.80;;;19.90;99.90;;;;;;5089471;28;20727;-81
2022/12/18 02:42:38;;;;;;;9.98;2.63;;;19.70;99.90;;;;;;5090747;28;20217;-81
2022/12/18 02:45:10;;;;;;;8.70;1.77;;;19.70;99.90;;;;;;5092744;28;20205;-82
2022/12/18 02:47:43;;;;;;;8.27;1.95;;;19.70;99.90;;;;;;5091015;28;20232;-82
2022/12/18 02:50:24;;;;;;;9.82;2.58;;;19.80;99.90;;;;;;5091318;28;20195;-81
2022/12/18 02:53:07;;;;;;;8.82;1.55;;;20.00;99.90;;;;;;5091351;28;20218;-80
2022/12/18 02:55:51;;;;;;;7.13;1.42;;;20.10;99.90;;;;;;5091500;28;20233;-82
2022/12/18 02:58:31;;;;;;;5.43;1.15;;;20.30;99.90;;;;;;5089413;28;20197;-80
2022/12/18 03:01:07;;;;;;;7.38;1.60;;;20.30;99.90;;;;;;5088561;28;20195;-81
2022/12/18 03:03:41;;;;;;;8.18;1.60;;;20.40;99.90;;;;;;5091400;28;20199;-80
2022/12/18 03:06:17;;;;;;;5.55;1.38;;;20.50;99.90;;;;;;5092321;28;20434;-81
2022/12/18 03:08:52;;;;;;;5.95;2.47;;;20.70;99.90;;;;;;5087361;28;20194;-81
2022/12/18 03:12:22;;;;;;;6.35;1.60;;;20.90;99.90;;;;;;5089706;28;20195;-80
2022/12/18 03:14:18;;;;;;;6.30;1.58;;;21.00;99.90;;;;;;5089586;28;20666;-80
2022/12/18 03:16:55;;;;;;;9.63;1.38;;;21.20;99.90;;;;;;5091901;28;20611;-79
2022/12/18 03:19:30;;;;;;;11.05;1.48;;;21.40;99.90;;;;;;5092931;28;20203;-81
2022/12/18 03:22:02;;;;;;;6.10;1.17;;;21.40;99.90;;;;;;5077810;28;20221;-81
2022/12/18 03:24:38;;;;;;;8.07;1.45;;;21.40;99.90;;;;;;5081836;28;20207;-81
2022/12/18 03:27:14;;;;;;;5.22;1.05;;;21.40;99.90;;;;;;5103889;28;20736;-80
2022/12/18 03:29:49;;;;;;;7.95;1.40;;;21.40;99.90;;;;;;5094893;28;20206;-81
2022/12/18 03:32:27;;;;;;;10.00;1.77;;;21.50;99.90;;;;;;5092503;28;20282;-80
2022/12/18 03:35:00;;;;;;;5.38;1.27;;;21.40;99.90;;;;;;5096993;28;20264;-81
2022/12/18 03:37:38;;;;;;;7.93;1.70;;;21.40;99.90;;;;;;5090790;28;20227;-80
2022/12/18 03:40:10;;;;;;;7.75;1.50;;;21.40;99.90;;;;;;5092595;28;20286;-80
2022/12/18 03:42:49;;;;;;;6.75;1.58;;;21.20;99.90;;;;;;5091550;28;20199;-81
2022/12/18 03:45:29;;;;;;;6.35;1.55;;;21.10;99.90;;;;;;5082942;28;20540;-81
2022/12/18 03:48:06;;;;;;;9.93;1.75;;;21.00;99.90;;;;;;5092522;28;20202;-81
2022/12/18 03:50:43;;;;;;;6.07;1.40;;;21.00;99.90;;;;;;5091306;28;20675;-81
2022/12/18 03:53:25;;;;;;;9.20;1.70;;;21.00;99.90;;;;;;5090570;28;20272;-81
2022/12/18 03:55:57;;;;;;;7.53;1.67;;;20.90;99.90;;;;;;5090740;28;20219;-80
2022/12/18 03:58:31;;;;;;;4.35;1.33;;;20.70;99.90;;;;;;5090458;28;20191;-80
2022/12/18 04:01:09;;;;;;;4.45;1.10;;;20.70;99.90;;;;;;5088086;28;20195;-80
2022/12/18 04:03:41;;;;;;;9.50;1.70;;;20.70;99.90;;;;;;5089697;28;20195;-80
2022/12/18 04:06:12;;;;;;;8.35;1.67;;;20.70;99.90;;;;;;5093443;28;20210;-80
2022/12/18 04:08:44;;;;;;;6.57;1.65;;;20.70;99.90;;;;;;5087621;28;20195;-81
2022/12/18 04:11:14;;;;;;;6.47;1.77;;;20.70;99.90;;;;;;5091538;28;20250;-82
2022/12/18 04:13:46;;;;;;;5.90;1.42;;;20.70;99.90;;;;;;5090503;28;20238;-81
2022/12/18 04:16:19;;;;;;;4.10;1.10;;;20.80;99.90;;;;;;5089363;28;20739;-80
2022/12/18 04:18:50;;;;;;;5.82;1.23;;;20.90;99.90;;;;;;5090591;28;20203;-81
2022/12/18 04:21:21;;;;;;;4.97;1.08;;;21.10;99.90;;;;;;5084097;28;20195;-80
2022/12/18 04:23:52;;;;;;;7.07;1.15;;;21.50;99.90;;;;;;5093751;28;20195;-83
2022/12/18 04:26:22;;;;;;;7.10;1.33;;;21.60;99.90;;;;;;5090986;28;20286;-82
2022/12/18 04:28:54;;;;;;;5.28;1.15;;;21.70;99.90;;;;;;5082602;28;20195;-81
2022/12/18 04:31:27;;;;;;;3.72;1.08;;;21.80;99.90;;;;;;5091668;28;20278;-80
2022/12/18 04:33:58;;;;;;;5.97;1.00;;;22.10;99.90;;;;;;5088934;28;20202;-80
2022/12/18 04:36:29;;;;;;;5.07;1.20;;;22.30;99.90;;;;;;5089738;28;20329;-82
2022/12/18 04:39:00;;;;;;;4.00;1.05;;;22.00;99.90;;;;;;5089574;28;20207;-82
2022/12/18 04:41:30;;;;;;;3.58;0.80;;;22.00;99.90;;;;;;5090722;28;20195;-80
2022/12/18 04:44:01;;;;;;;6.05;1.02;;;21.90;99.90;;;;;;5088393;28;20196;-80
2022/12/18 04:46:34;;;;;;;7.00;1.52;;;21.80;99.90;;;;;;5089526;28;20646;-80
2022/12/18 04:49:07;;;;;;;4.95;1.38;;;21.60;99.90;;;;;;5089725;28;20200;-80
2022/12/18 04:51:38;;;;;;;8.88;1.30;;;21.60;99.90;;;;;;5088518;28;20195;-79
2022/12/18 04:54:09;;;;;;;7.18;1.50;;;21.30;99.90;;;;;;5088872;28;20199;-79
2022/12/18 04:56:42;;;;;;;4.95;1.20;;;21.50;99.90;;;;;;5090933;28;20780;-79
2022/12/18 04:59:13;;;;;;;3.00;0.80;;;21.80;99.90;;;;;;5084276;28;20406;-79
2022/12/18 05:01:46;;;;;;;4.72;1.00;;;22.20;99.90;;;;;;5092036;28;20191;-81
2022/12/18 05:04:16;;;;;;;3.28;1.00;;;22.40;99.90;;;;;;5093678;28;20274;-80
2022/12/18 05:06:47;;;;;;;4.93;1.23;;;22.50;99.90;;;;;;5094108;28;20674;-80
2022/12/18 05:09:18;;;;;;;4.00;0.93;;;22.80;99.90;;;;;;5097414;28;20190;-81
2022/12/18 05:11:49;;;;;;;3.17;1.08;;;23.00;99.90;;;;;;5093080;28;20612;-80
2022/12/18 05:14:20;;;;;;;5.60;1.48;;;23.10;99.90;;;;;;5093510;28;20187;-80
2022/12/18 05:16:53;;;;;;;4.95;1.27;;;23.30;99.90;;;;;;5091462;28;20234;-80
2022/12/18 05:19:24;;;;;;;7.22;1.25;;;23.50;99.90;;;;;;5088973;28;20191;-80
2022/12/18 05:21:55;;;;;;;4.25;1.13;;;23.50;99.90;;;;;;5092118;28;20291;-79
2022/12/18 05:24:25;;;;;;;4.97;1.00;;;23.60;99.90;;;;;;5089718;28;20192;-79
2022/12/18 05:26:56;;;;;;;4.97;1.15;;;23.60;99.90;;;;;;5092674;28;20188;-79
2022/12/18 05:29:31;;;;;;;5.82;1.15;;;23.30;99.90;;;;;;5092610;28;20646;-78
2022/12/18 05:32:05;;;;;;;5.00;0.98;;;23.40;99.90;;;;;;5090711;28;20206;-79
2022/12/18 05:34:36;;;;;;;2.45;0.80;;;23.60;99.90;;;;;;5092006;28;20268;-79
2022/12/18 05:37:07;;;;;;;3.00;1.10;;;23.70;99.90;;;;;;5093225;28;20195;-79
2022/12/18 05:39:37;;;;;;;4.28;0.95;;;23.90;99.90;;;;;;5086331;28;20814;-80
2022/12/18 05:42:08;;;;;;;4.82;1.10;;;24.40;99.90;;;;;;5093034;28;20219;-79
2022/12/18 05:44:39;;;;;;;2.90;1.05;;;24.90;99.90;;;;;;5092093;28;20195;-80
2022/12/18 05:47:12;;;;;;;4.13;1.00;;;25.00;99.90;;;;;;5093072;28;20196;-80
2022/12/18 05:49:42;;;;;;;3.42;1.20;;;24.90;99.90;;;;;;5092356;28;20191;-79
2022/12/18 05:52:13;;;;;;;5.38;1.40;;;25.10;99.90;;;;;;5094129;28;20654;-81
2022/12/18 05:54:44;;;;;;;4.93;1.40;;;25.40;99.90;;;;;;5090662;28;20218;-79
2022/12/18 05:57:15;;;;;;;4.53;1.23;;;25.80;99.90;;;;;;5095673;28;20199;-79
2022/12/18 05:59:46;;;;;;;4.70;1.15;;;25.90;99.90;;;;;;5089636;28;20200;-79
2022/12/18 06:02:22;;;;;;;4.03;1.08;;;26.00;98.30;;;;;;5091042;28;20227;-79
2022/12/18 06:04:52;;;;;;;5.50;1.30;;;25.50;99.80;;;;;;5091955;28;20664;-79
2022/12/18 06:07:23;;;;;;;7.28;1.23;;;25.50;99.90;;;;;;5095416;28;20245;-79
2022/12/18 06:09:54;;;;;;;6.75;1.70;;;25.10;99.90;;;;;;5080738;28;20275;-79
2022/12/18 06:12:25;;;;;;;5.93;1.33;;;25.00;99.90;;;;;;5078773;28;20196;-80
2022/12/18 06:14:55;;;;;;;7.15;1.48;;;25.10;99.90;;;;;;5081296;28;20203;-80
2022/12/18 06:17:31;;;;;;;7.28;1.45;;;24.90;99.90;;;;;;5082608;28;20219;-80
2022/12/18 06:20:04;;;;;;;7.35;1.60;;;24.80;99.90;;;;;;5092145;28;20563;-80
2022/12/18 06:22:35;;;;;;;4.95;1.50;;;24.80;99.90;;;;;;5091702;28;20206;-80
2022/12/18 06:25:06;;;;;;;8.25;1.55;;;24.70;99.90;;;;;;5090656;28;20252;-80
2022/12/18 06:27:37;;;;;;;6.75;1.38;;;24.60;99.90;;;;;;5094250;28;20664;-80
2022/12/18 06:30:09;;;;;;;5.18;1.10;;;24.60;99.90;;;;;;5091392;28;20282;-80
2022/12/18 06:32:42;;;;;;;10.10;1.50;;;24.50;99.90;;;;;;5086465;28;20292;-79
2022/12/18 06:35:13;;;;;;;6.05;1.10;;;24.50;99.90;;;;;;5092111;28;20227;-79
2022/12/18 06:37:43;;;;;;;5.03;1.10;;;24.90;99.90;;;;;;5091271;28;20195;-79
2022/12/18 06:40:14;;;;;;;2.28;0.90;;;25.20;98.30;;;;;;5086436;28;20208;-79
2022/12/18 06:42:45;;;;;;;6.80;1.10;;;25.60;96.00;;;;;;5089470;28;20575;-79
2022/12/18 06:45:19;;;;;;;7.32;1.35;;;25.90;94.40;;;;;;5091127;28;20223;-79
2022/12/18 06:47:51;;;;;;;6.65;1.23;;;26.30;95.70;;;;;;5092625;28;20199;-79
2022/12/18 06:50:26;;;;;;;5.80;1.27;;;26.80;96.10;;;;;;5091734;28;20569;-80
2022/12/18 06:52:56;;;;;;;3.60;1.17;;;27.10;92.90;;;;;;5091008;28;20750;-79
2022/12/18 06:55:27;;;;;;;4.13;1.15;;;27.40;91.30;;;;;;5091231;28;20242;-78
2022/12/18 06:57:58;;;;;;;4.53;1.17;;;27.40;90.80;;;;;;5090924;28;20202;-79
2022/12/18 07:00:29;;;;;;;5.05;1.33;;;27.50;90.00;;;;;;5086325;28;20570;-77
2022/12/18 07:03:02;;;;;;;6.82;1.13;;;27.70;86.10;;;;;;5093555;28;20560;-78
2022/12/18 07:05:35;;;;;;;3.97;1.13;;;27.50;85.40;;;;;;5081206;28;20573;-78
2022/12/18 07:08:06;;;;;;;3.17;1.25;;;27.80;82.60;;;;;;5093958;28;20670;-79
2022/12/18 07:10:43;;;;;;;3.78;1.50;;;28.00;81.10;;;;;;5092413;28;20290;-78
2022/12/18 07:13:14;;;;;;;3.63;1.13;;;28.10;80.60;;;;;;5091346;28;20199;-78
2022/12/18 07:15:44;;;;;;;6.07;1.02;;;28.40;79.20;;;;;;5091856;28;20235;-78
2022/12/18 07:18:17;;;;;;;6.32;1.05;;;28.40;75.00;;;;;;5092329;28;20195;-78
2022/12/18 07:20:48;;;;;;;5.00;1.35;;;27.60;76.10;;;;;;5090635;28;20539;-79
2022/12/18 07:23:19;;;;;;;5.80;1.30;;;27.50;78.30;;;;;;5091959;28;20290;-79
2022/12/18 07:25:53;;;;;;;3.40;1.00;;;27.60;78.30;;;;;;5091303;28;20195;-79
2022/12/18 07:28:24;;;;;;;5.45;1.10;;;27.50;80.40;;;;;;5090369;28;20275;-79
2022/12/18 07:30:58;;;;;;;5.95;1.30;;;27.20;82.00;;;;;;5089443;28;20295;-78
2022/12/18 07:33:31;;;;;;;6.85;1.65;;;27.20;81.50;;;;;;5093750;28;20249;-78
2022/12/18 07:36:03;;;;;;;3.55;1.10;;;26.70;82.60;;;;;;5090302;28;20211;-79
2022/12/18 07:38:34;;;;;;;5.85;1.20;;;26.00;83.80;;;;;;5084484;28;20650;-79
2022/12/18 07:41:06;;;;;;;6.30;1.52;;;25.30;88.50;;;;;;5085609;28;20202;-79
2022/12/18 07:43:41;;;;;;;6.07;1.30;;;24.30;92.70;;;;;;5092782;28;20714;-78
2022/12/18 07:46:15;;;;;;;8.32;2.25;;;23.70;98.30;;;;;;5090347;28;20228;-79
2022/12/18 07:48:48;;;;;;;5.55;2.05;;;22.90;99.90;;;;;;5083989;28;20198;-79
2022/12/18 07:51:20;;;;;;;7.13;2.10;;;22.50;99.90;;;;;;5078169;28;20196;-79
2022/12/18 07:53:51;;;;;;;8.48;2.08;;;22.20;99.90;;;;;;5089869;28;20210;-79
2022/12/18 07:56:23;;;;;;;4.18;1.20;;;21.90;99.90;;;;;;5093042;28;20728;-79
2022/12/18 07:58:54;;;;;;;6.25;1.77;;;21.60;99.90;;;;;;5077562;28;20196;-78
2022/12/18 08:01:25;;;;;;;7.65;1.75;;;21.60;99.90;;;;;;5086666;28;20671;-78
2022/12/18 08:03:58;;;;;;;21.73;6.88;;;21.50;99.90;;;;;;5088037;28;20201;-79
2022/12/18 08:06:31;;;;;;;10.10;1.67;;;21.30;99.90;;;;;;5087507;28;20664;-79
2022/12/18 08:09:02;;;;;;;7.82;2.47;;;21.20;99.90;;;;;;5093082;28;20195;-80
2022/12/18 08:11:33;;;;;;;9.70;3.15;;;20.90;99.90;;;;;;5107197;28;20277;-80
2022/12/18 08:14:07;;;;;;;5.50;1.83;;;20.70;99.90;;;;;;5088473;28;20203;-81
2022/12/18 08:16:38;;;;;;;6.75;1.90;;;20.50;99.90;;;;;;5093311;28;20231;-81
2022/12/18 08:19:10;;;;;;;6.68;1.92;;;20.40;99.90;;;;;;5091080;28;20657;-80
2022/12/18 08:21:41;;;;;;;7.20;1.75;;;20.50;99.90;;;;;;5084850;28;20201;-80
2022/12/18 08:24:13;;;;;;;7.75;1.35;;;20.40;99.90;;;;;;5094748;28;20195;-82
2022/12/18 08:26:44;;;;;;;6.50;1.90;;;20.30;99.90;;;;;;5094345;28;20205;-81
2022/12/18 08:29:14;;;;;;;4.25;1.33;;;20.30;99.90;;;;;;5097795;28;20212;-80
2022/12/18 08:31:45;;;;;;;4.22;1.92;;;20.20;99.90;;;;;;5098829;28;20453;-80
2022/12/18 08:34:18;;;;;;;5.32;1.70;;;20.10;99.90;;;;;;5097545;28;20220;-80
2022/12/18 08:36:49;;;;;;;6.30;1.33;;;19.90;99.90;;;;;;5096919;28;20226;-79
2022/12/18 08:39:20;;;;;;;5.35;1.27;;;19.80;99.90;;;;;;5094829;28;20315;-79
2022/12/18 08:44:39;;;;;;;7.07;2.15;;;19.80;99.90;;;;;;5096388;28;20191;-80
2022/12/18 08:47:11;;;;;;;7.28;2.60;;;19.80;99.90;;;;;;5097703;28;20294;-80
2022/12/18 08:49:52;;;;;;;4.50;1.33;;;19.80;99.90;;;;;;5097148;28;20191;-79
2022/12/18 08:52:23;;;;;;;5.78;1.92;;;19.70;99.90;;;;;;5090576;28;20184;-81
2022/12/18 08:54:59;;;;;;;6.30;2.10;;;19.70;99.90;;;;;;5107638;28;20312;-79
2022/12/18 09:00:36;;;;;;;4.75;1.10;;;19.50;99.90;;;;;;5108387;28;20742;-80
2022/12/18 09:03:16;;;;;;;4.25;1.35;;;19.20;99.90;;;;;;5107175;28;20217;-81
2022/12/18 09:05:53;;;;;;;8.45;1.95;;;18.90;99.90;;;;;;5106366;28;20262;-82
2022/12/18 09:08:32;;;;;;;9.20;3.35;;;18.60;99.90;;;;;;5127687;28;20201;-81
2022/12/18 09:11:14;;;;;;;4.95;0.80;;;18.50;99.90;;;;;;5089181;28;20191;-81
2022/12/18 09:13:46;;;;;;;2.40;1.00;;;18.40;99.90;;;;;;5105102;28;20234;-81
2022/12/18 09:16:17;;;;;;;3.28;1.10;;;18.40;99.90;;;;;;5105821;28;20318;-81
2022/12/18 09:18:49;;;;;;;4.85;1.20;;;18.30;99.90;;;;;;5106862;28;20735;-82
2022/12/18 09:21:25;;;;;;;3.38;0.82;;;18.20;99.90;;;;;;5105753;28;20198;-80
2022/12/18 09:23:57;;;;;;;4.40;1.40;;;18.20;99.90;;;;;;5087674;28;20276;-81
2022/12/18 09:26:29;;;;;;;4.68;1.05;;;18.10;99.90;;;;;;5096390;28;20209;-81
2022/12/18 09:28:59;;;;;;;3.85;0.95;;;18.20;99.90;;;;;;5101099;28;20206;-81
2022/12/18 09:31:31;;;;;;;5.38;1.23;;;18.20;99.90;;;;;;5100728;28;20213;-80
2022/12/18 09:34:03;;;;;;;4.22;1.20;;;18.10;99.90;;;;;;5105487;28;20187;-80
2022/12/18 09:36:39;;;;;;;7.30;2.33;;;18.10;99.90;;;;;;5107475;28;20219;-81
2022/12/18 09:39:13;;;;;;;6.72;1.85;;;18.10;99.90;;;;;;5105515;28;20562;-80
2022/12/18 09:41:53;;;;;;;13.10;5.20;;;18.10;99.90;;;;;;5102113;28;20251;-80
2022/12/18 09:44:28;;;;;;;5.60;1.80;;;18.20;99.90;;;;;;5101106;28;20282;-81
2022/12/18 09:47:15;;;;;;;5.50;1.52;;;18.30;99.90;;;;;;5084779;28;20724;-81
2022/12/18 09:49:57;;;;;;;4.65;1.63;;;18.20;99.90;;;;;;5103206;28;20227;-79
2022/12/18 09:52:33;;;;;;;4.80;1.55;;;18.40;99.90;;;;;;5105043;28;20324;-80
2022/12/18 09:55:12;;;;;;;7.47;1.70;;;18.40;99.90;;;;;;5103692;28;20223;-81
2022/12/18 09:57:52;;;;;;;7.18;1.95;;;18.40;99.90;;;;;;5107997;28;20274;-81
2022/12/18 10:00:25;;;;;;;8.85;3.50;;;18.40;99.90;;;;;;5104826;28;20199;-79
2022/12/18 10:03:01;;;;;;;8.65;1.55;;;18.30;99.90;;;;;;5087851;28;20194;-80
2022/12/18 10:05:39;;;;;;;3.90;1.20;;;18.40;99.90;;;;;;5102018;28;20214;-80
2022/12/18 10:08:20;;;;;;;8.57;1.80;;;18.40;99.90;;;;;;5115178;28;20198;-80
2022/12/18 10:10:54;;;;;;;5.30;1.60;;;18.40;99.90;;;;;;5109036;28;20204;-81
2022/12/18 10:13:39;;;;;;;6.88;1.85;;;18.40;99.90;;;;;;5081818;28;20207;-81
2022/12/18 10:16:18;;;;;;;4.60;1.40;;;18.40;99.90;;;;;;5079883;28;20698;-80
2022/12/18 10:19:20;;;;;;;6.47;1.10;;;18.40;99.90;;;;;;5090192;28;20258;-80
2022/12/18 10:21:59;;;;;;;7.22;1.25;;;18.30;99.90;;;;;;5096685;28;20572;-79
2022/12/18 10:24:38;;;;;;;5.28;1.17;;;18.40;99.90;;;;;;5089745;28;20689;-80
2022/12/18 10:27:17;;;;;;;6.32;1.02;;;18.40;99.90;;;;;;5088437;28;20203;-80
2022/12/18 10:29:48;;;;;;;5.45;1.08;;;18.40;99.90;;;;;;5100818;28;20197;-80
2022/12/18 10:32:21;;;;;;;4.38;1.00;;;18.40;99.90;;;;;;5099190;28;20733;-80
2022/12/18 10:34:56;;;;;;;7.35;1.48;;;18.40;99.90;;;;;;5091583;28;20234;-81
2022/12/18 10:37:30;;;;;;;5.47;1.50;;;18.50;99.90;;;;;;5107755;28;20282;-80
2022/12/18 10:40:14;;;;;;;4.20;1.20;;;18.60;99.90;;;;;;5097222;28;20222;-80
2022/12/18 10:42:45;;;;;;;7.03;1.20;;;18.60;99.90;;;;;;5086073;28;20213;-76
2022/12/18 10:45:19;;;;;;;5.63;1.15;;;18.70;99.90;;;;;;5094092;28;20198;-79
2022/12/18 10:47:52;;;;;;;5.10;1.10;;;18.80;99.90;;;;;;5094658;28;20195;-79
2022/12/18 10:50:26;;;;;;;4.28;1.10;;;18.80;99.90;;;;;;5095267;28;20199;-80
2022/12/18 10:53:00;;;;;;;8.85;1.63;;;18.80;99.90;;;;;;5095392;28;20201;-80
2022/12/18 10:55:37;;;;;;;5.03;1.20;;;18.70;99.90;;;;;;5092441;28;20229;-80
2022/12/18 10:58:26;;;;;;;4.45;1.13;;;18.60;99.90;;;;;;5098911;28;20633;-80
2022/12/18 11:01:14;;;;;;;6.57;1.40;;;18.40;99.90;;;;;;5095565;28;20713;-81
2022/12/18 11:03:46;;;;;;;5.22;1.40;;;18.30;99.90;;;;;;5098518;28;20241;-80
2022/12/18 11:06:24;;;;;;;10.30;1.45;;;18.20;99.90;;;;;;5089601;28;20650;-82
2022/12/18 11:09:02;;;;;;;7.03;1.40;;;18.00;99.90;;;;;;5095368;28;20202;-84
2022/12/18 11:11:39;;;;;;;5.80;1.38;;;18.00;99.90;;;;;;5075811;28;20192;-85
2022/12/18 11:14:18;;;;;;;6.05;1.58;;;17.90;99.90;;;;;;5086675;28;20219;-85
2022/12/18 11:16:50;;;;;;;8.98;1.55;;;18.00;99.90;;;;;;5096898;28;20243;-84
2022/12/18 11:19:32;;;;;;;8.52;1.25;;;18.00;99.90;;;;;;5096624;28;20263;-82
2022/12/18 11:22:04;;;;;;;6.53;1.50;;;18.00;99.90;;;;;;5096365;28;20661;-83
2022/12/18 11:24:37;;;;;;;7.75;1.52;;;18.10;99.90;;;;;;5095688;28;20569;-85
2022/12/18 11:27:25;;;;;;;5.68;1.20;;;18.00;99.90;;;;;;5103924;28;20216;-84
2022/12/18 11:30:09;;;;;;;5.55;1.40;;;18.00;99.90;;;;;;5088930;28;20749;-84
2022/12/18 11:32:43;;;;;;;6.60;1.40;;;18.00;99.90;;;;;;5082083;28;20192;-84
2022/12/18 11:35:20;;;;;;;8.10;2.00;;;18.00;99.90;;;;;;5097065;28;20258;-83
2022/12/18 11:37:57;;;;;;;8.50;1.65;;;17.80;99.90;;;;;;5092254;28;20229;-83
2022/12/18 11:40:35;;;;;;;5.35;1.70;;;17.80;99.90;;;;;;5092212;28;20207;-85
2022/12/18 11:43:21;;;;;;;6.75;1.48;;;17.80;99.90;;;;;;5083097;28;20222;-84
2022/12/18 11:45:56;;;;;;;8.98;1.80;;;17.80;99.90;;;;;;5094957;28;20327;-83
2022/12/18 11:48:31;;;;;;;5.63;1.20;;;17.80;99.90;;;;;;5076904;28;20555;-82
2022/12/18 11:51:04;;;;;;;8.15;1.55;;;17.80;99.90;;;;;;5099314;28;20210;-84
2022/12/18 11:53:37;;;;;;;4.50;1.45;;;17.90;99.90;;;;;;5079245;28;20196;-84
2022/12/18 11:56:29;;;;;;;7.10;1.67;;;17.80;99.90;;;;;;5083769;28;20198;-84
2022/12/18 11:59:17;;;;;;;5.88;1.55;;;17.70;99.90;;;;;;5094365;28;20229;-87
2022/12/18 12:01:56;;;;;;;7.90;1.52;;;17.70;99.90;;;;;;5099469;28;20199;-85
2022/12/18 12:04:50;;;;;;;6.18;1.73;;;17.60;99.90;;;;;;5099470;28;20197;-85
2022/12/18 12:07:29;;;;;;;11.48;1.73;;;17.60;99.90;;;;;;5127614;28;20202;-85
2022/12/18 12:10:11;;;;;;;7.30;1.50;;;17.60;99.90;;;;;;5104787;28;20192;-85
2022/12/18 12:13:03;;;;;;;6.50;1.77;;;17.60;99.90;;;;;;5100365;28;20202;-84
2022/12/18 12:15:47;;;;;;;5.97;1.50;;;17.70;99.90;;;;;;5097549;28;20725;-84
2022/12/18 12:18:28;;;;;;;9.07;1.75;;;17.70;99.90;;;;;;5104381;28;20294;-84
2022/12/18 12:21:05;;;;;;;5.57;1.38;;;17.80;99.90;;;;;;5082651;28;20196;-86
2022/12/18 12:23:43;;;;;;;7.90;1.70;;;17.80;99.90;;;;;;5072024;28;20241;-84
2022/12/18 12:26:25;;;;;;;7.85;1.85;;;17.80;99.90;;;;;;5082711;28;20198;-85
2022/12/18 12:29:03;;;;;;;7.28;1.33;;;17.80;99.90;;;;;;5087580;28;20681;-85
2022/12/18 12:31:52;;;;;;;8.98;1.98;;;17.70;99.90;;;;;;5082155;28;20203;-85
2022/12/18 12:34:28;;;;;;;6.90;1.70;;;17.60;99.90;;;;;;5088597;28;20203;-84
2022/12/18 12:37:12;;;;;;;7.97;1.30;;;17.60;99.90;;;;;;5091094;28;20205;-84
2022/12/18 12:39:50;;;;;;;6.28;1.20;;;17.50;99.90;;;;;;5092031;28;20301;-86
2022/12/18 12:45:20;;;;;;;6.40;1.20;;;17.50;99.90;;;;;;5092282;28;20194;-85
2022/12/18 12:47:57;;;;;;;5.60;1.25;;;17.60;99.90;;;;;;5091583;28;20203;-85
2022/12/18 12:50:33;;;;;;;4.25;0.93;;;17.60;99.90;;;;;;5083439;28;20192;-86
2022/12/18 12:53:08;;;;;;;5.20;1.00;;;17.50;99.90;;;;;;5093194;28;20214;-87
2022/12/18 12:55:40;;;;;;;6.75;1.40;;;17.40;99.90;;;;;;5091930;28;20588;-87
2022/12/18 12:58:18;;;;;;;3.90;0.98;;;17.40;99.90;;;;;;5092066;28;20317;-86
2022/12/18 13:00:59;;;;;;;9.07;1.40;;;17.50;99.90;;;;;;5092411;28;20406;-86
2022/12/18 13:03:44;;;;;;;7.00;1.45;;;17.50;99.90;;;;;;5088983;28;20278;-87
2022/12/18 13:06:26;;;;;;;7.13;1.75;;;17.40;99.90;;;;;;5093593;28;20198;-87
2022/12/18 13:08:59;;;;;;;7.50;1.85;;;17.40;99.90;;;;;;5097500;28;20200;-89
2022/12/18 13:14:35;;;;;;;8.70;1.42;;;17.40;99.90;;;;;;5103306;28;20182;-88
2022/12/18 13:17:31;;;;;;;10.18;1.80;;;17.50;99.90;;;;;;5096481;28;20231;-87
2022/12/18 13:20:19;;;;;;;9.13;2.17;;;17.60;99.90;;;;;;5098981;28;20239;-87
2022/12/18 13:22:52;;;;;;;11.10;2.00;;;17.70;99.90;;;;;;5096384;28;20571;-87
2022/12/18 13:25:40;;;;;;;11.25;2.05;;;17.70;99.90;;;;;;5097764;28;20207;-87
2022/12/18 13:28:13;;;;;;;10.05;2.22;;;17.70;99.90;;;;;;5079700;28;20279;-87
2022/12/18 13:30:56;;;;;;;9.10;2.30;;;17.70;99.90;;;;;;5097811;28;20195;-87
2022/12/18 13:33:54;;;;;;;9.50;2.30;;;17.70;99.90;;;;;;5098103;28;20224;-88
2022/12/18 13:36:41;;;;;;;10.20;2.28;;;17.80;99.90;;;;;;5089806;28;20227;-87
2022/12/18 13:39:26;;;;;;;14.55;2.65;;;17.80;99.90;;;;;;5095366;28;20685;-87